sensor_id;sensor_type;location;lat;lon;timestamp;pressure;altitude;pressure_sealevel;temperature;humidity
65013;BME280;51715;39.432;-77.518;2022-12-07T00:01:13;100174.69;;;12.77;43.56
65013;BME280;51715;39.432;-77.518;2022-12-07T00:03:52;100183.26;;;12.76;43.38
65013;BME280;51715;39.432;-77.518;2022-12-07T00:06:30;100195.62;;;13.17;43.44
65013;BME280;51715;39.432;-77.518;2022-12-07T00:09:10;100186.17;;;12.91;43.64
65013;BME280;51715;39.432;-77.518;2022-12-07T00:11:48;100178.04;;;13.03;43.27
65013;BME280;51715;39.432;-77.518;2022-12-07T00:14:26;100175.81;;;12.83;43.70
65013;BME280;51715;39.432;-77.518;2022-12-07T00:17:03;100194.83;;;13.02;44.17
65013;BME280;51715;39.432;-77.518;2022-12-07T00:19:40;100181.59;;;12.18;45.15
65013;BME280;51715;39.432;-77.518;2022-12-07T00:22:17;100170.04;;;12.34;45.03
65013;BME280;51715;39.432;-77.518;2022-12-07T00:24:54;100165.72;;;12.52;44.79
65013;BME280;51715;39.432;-77.518;2022-12-07T00:27:33;100157.29;;;12.37;45.05
65013;BME280;51715;39.432;-77.518;2022-12-07T00:30:11;100156.48;;;12.46;44.58
65013;BME280;51715;39.432;-77.518;2022-12-07T00:32:48;100152.28;;;13.65;44.07
65013;BME280;51715;39.432;-77.518;2022-12-07T00:35:26;100161.69;;;13.44;45.19
65013;BME280;51715;39.432;-77.518;2022-12-07T00:38:05;100155.81;;;13.19;46.61
65013;BME280;51715;39.432;-77.518;2022-12-07T00:40:42;100172.06;;;13.00;47.19
65013;BME280;51715;39.432;-77.518;2022-12-07T00:43:20;100190.59;;;12.98;47.89
65013;BME280;51715;39.432;-77.518;2022-12-07T00:45:59;100178.74;;;11.99;50.36
65013;BME280;51715;39.432;-77.518;2022-12-07T00:48:38;100195.55;;;12.48;49.55
65013;BME280;51715;39.432;-77.518;2022-12-07T00:51:18;100187.67;;;12.62;48.93
65013;BME280;51715;39.432;-77.518;2022-12-07T00:53:57;100160.70;;;12.10;49.10
65013;BME280;51715;39.432;-77.518;2022-12-07T00:56:35;100175.81;;;12.57;48.91
65013;BME280;51715;39.432;-77.518;2022-12-07T00:59:17;100179.98;;;12.77;48.57
65013;BME280;51715;39.432;-77.518;2022-12-07T01:01:56;100190.37;;;12.62;48.59
65013;BME280;51715;39.432;-77.518;2022-12-07T01:04:34;100201.98;;;12.19;49.28
65013;BME280;51715;39.432;-77.518;2022-12-07T01:07:12;100182.53;;;11.81;50.28
65013;BME280;51715;39.432;-77.518;2022-12-07T01:09:50;100180.54;;;12.33;49.35
65013;BME280;51715;39.432;-77.518;2022-12-07T01:12:28;100179.50;;;12.83;49.01
65013;BME280;51715;39.432;-77.518;2022-12-07T01:15:07;100162.97;;;12.43;49.07
65013;BME280;51715;39.432;-77.518;2022-12-07T01:17:45;100153.55;;;12.64;48.93
65013;BME280;51715;39.432;-77.518;2022-12-07T01:20:24;100156.61;;;12.67;48.62
65013;BME280;51715;39.432;-77.518;2022-12-07T01:23:02;100152.13;;;12.85;48.96
65013;BME280;51715;39.432;-77.518;2022-12-07T01:25:40;100140.94;;;12.54;48.77
65013;BME280;51715;39.432;-77.518;2022-12-07T01:28:18;100135.65;;;12.54;48.91
65013;BME280;51715;39.432;-77.518;2022-12-07T01:31:06;100140.61;;;12.55;48.85
65013;BME280;51715;39.432;-77.518;2022-12-07T01:33:45;100149.47;;;12.73;48.73
65013;BME280;51715;39.432;-77.518;2022-12-07T01:36:25;100145.12;;;12.24;48.96
65013;BME280;51715;39.432;-77.518;2022-12-07T01:39:05;100145.21;;;12.81;48.82
65013;BME280;51715;39.432;-77.518;2022-12-07T01:41:46;100131.59;;;12.78;48.48
65013;BME280;51715;39.432;-77.518;2022-12-07T01:44:26;100125.55;;;12.74;48.59
65013;BME280;51715;39.432;-77.518;2022-12-07T01:47:06;100144.81;;;12.78;48.55
65013;BME280;51715;39.432;-77.518;2022-12-07T01:49:48;100145.72;;;12.94;48.45
65013;BME280;51715;39.432;-77.518;2022-12-07T01:52:29;100164.73;;;12.40;48.96
65013;BME280;51715;39.432;-77.518;2022-12-07T01:55:11;100180.73;;;12.81;48.93
65013;BME280;51715;39.432;-77.518;2022-12-07T01:57:53;100177.82;;;12.78;48.60
65013;BME280;51715;39.432;-77.518;2022-12-07T02:00:31;100193.40;;;12.67;48.56
65013;BME280;51715;39.432;-77.518;2022-12-07T02:03:13;100189.47;;;12.44;48.60
65013;BME280;51715;39.432;-77.518;2022-12-07T02:05:54;100196.06;;;12.86;48.35
65013;BME280;51715;39.432;-77.518;2022-12-07T02:08:34;100195.48;;;13.04;48.06
65013;BME280;51715;39.432;-77.518;2022-12-07T02:11:13;100181.64;;;12.97;48.14
65013;BME280;51715;39.432;-77.518;2022-12-07T02:13:52;100180.02;;;12.96;47.86
65013;BME280;51715;39.432;-77.518;2022-12-07T02:16:36;100167.42;;;13.10;47.88
65013;BME280;51715;39.432;-77.518;2022-12-07T02:19:38;100166.20;;;13.30;47.43
65013;BME280;51715;39.432;-77.518;2022-12-07T02:22:38;100153.03;;;12.88;47.33
65013;BME280;51715;39.432;-77.518;2022-12-07T02:25:39;100165.31;;;12.69;48.14
65013;BME280;51715;39.432;-77.518;2022-12-07T02:28:26;100176.82;;;12.69;48.15
65013;BME280;51715;39.432;-77.518;2022-12-07T02:31:11;100173.22;;;13.03;47.90
65013;BME280;51715;39.432;-77.518;2022-12-07T02:33:54;100175.74;;;12.43;48.44
65013;BME280;51715;39.432;-77.518;2022-12-07T02:36:39;100170.99;;;12.46;48.14
65013;BME280;51715;39.432;-77.518;2022-12-07T02:39:25;100163.04;;;12.70;48.51
65013;BME280;51715;39.432;-77.518;2022-12-07T02:42:15;100162.72;;;12.60;47.91
65013;BME280;51715;39.432;-77.518;2022-12-07T02:44:56;100169.31;;;12.31;48.80
65013;BME280;51715;39.432;-77.518;2022-12-07T02:47:35;100174.40;;;12.73;48.66
65013;BME280;51715;39.432;-77.518;2022-12-07T02:50:15;100168.90;;;12.68;48.27
65013;BME280;51715;39.432;-77.518;2022-12-07T02:52:55;100176.62;;;12.64;48.05
65013;BME280;51715;39.432;-77.518;2022-12-07T02:55:39;100171.30;;;12.98;47.84
65013;BME280;51715;39.432;-77.518;2022-12-07T02:58:27;100163.86;;;12.93;47.96
65013;BME280;51715;39.432;-77.518;2022-12-07T03:01:15;100151.14;;;12.78;47.70
65013;BME280;51715;39.432;-77.518;2022-12-07T03:04:08;100136.71;;;12.86;47.55
65013;BME280;51715;39.432;-77.518;2022-12-07T03:06:56;100158.93;;;13.05;47.27
65013;BME280;51715;39.432;-77.518;2022-12-07T03:09:42;100163.73;;;13.14;47.19
65013;BME280;51715;39.432;-77.518;2022-12-07T03:12:26;100158.69;;;13.12;47.08
65013;BME280;51715;39.432;-77.518;2022-12-07T03:15:12;100144.34;;;13.00;46.75
65013;BME280;51715;39.432;-77.518;2022-12-07T03:17:53;100141.16;;;13.01;47.23
65013;BME280;51715;39.432;-77.518;2022-12-07T03:20:34;100143.09;;;13.24;46.92
65013;BME280;51715;39.432;-77.518;2022-12-07T03:23:15;100148.67;;;13.26;46.72
65013;BME280;51715;39.432;-77.518;2022-12-07T03:25:58;100162.95;;;13.01;46.87
65013;BME280;51715;39.432;-77.518;2022-12-07T03:28:42;100166.50;;;13.00;47.12
65013;BME280;51715;39.432;-77.518;2022-12-07T03:31:24;100158.71;;;13.17;46.96
65013;BME280;51715;39.432;-77.518;2022-12-07T03:34:07;100169.18;;;13.35;46.73
65013;BME280;51715;39.432;-77.518;2022-12-07T03:36:54;100171.33;;;13.31;46.53
65013;BME280;51715;39.432;-77.518;2022-12-07T03:39:39;100166.71;;;12.92;47.61
65013;BME280;51715;39.432;-77.518;2022-12-07T03:42:19;100173.11;;;12.95;47.24
65013;BME280;51715;39.432;-77.518;2022-12-07T03:44:59;100176.33;;;13.71;46.85
65013;BME280;51715;39.432;-77.518;2022-12-07T03:47:42;100175.04;;;13.29;46.78
65013;BME280;51715;39.432;-77.518;2022-12-07T03:50:29;100158.52;;;12.99;47.02
65013;BME280;51715;39.432;-77.518;2022-12-07T03:53:15;100166.38;;;13.07;46.75
65013;BME280;51715;39.432;-77.518;2022-12-07T03:56:10;100162.94;;;13.04;46.91
65013;BME280;51715;39.432;-77.518;2022-12-07T03:58:49;100167.10;;;13.18;46.98
65013;BME280;51715;39.432;-77.518;2022-12-07T04:01:28;100166.36;;;13.28;46.97
65013;BME280;51715;39.432;-77.518;2022-12-07T04:04:06;100172.72;;;13.32;46.87
65013;BME280;51715;39.432;-77.518;2022-12-07T04:06:44;100184.26;;;13.44;46.77
65013;BME280;51715;39.432;-77.518;2022-12-07T04:09:23;100179.41;;;13.22;46.68
65013;BME280;51715;39.432;-77.518;2022-12-07T04:12:01;100188.98;;;13.45;46.34
65013;BME280;51715;39.432;-77.518;2022-12-07T04:14:39;100190.30;;;13.38;46.51
65013;BME280;51715;39.432;-77.518;2022-12-07T04:17:18;100187.72;;;13.46;46.48
65013;BME280;51715;39.432;-77.518;2022-12-07T04:19:56;100175.86;;;13.40;46.51
65013;BME280;51715;39.432;-77.518;2022-12-07T04:22:34;100172.10;;;13.44;46.57
65013;BME280;51715;39.432;-77.518;2022-12-07T04:25:12;100163.39;;;13.51;46.96
65013;BME280;51715;39.432;-77.518;2022-12-07T04:27:51;100158.22;;;13.10;47.04
65013;BME280;51715;39.432;-77.518;2022-12-07T04:30:29;100161.98;;;13.01;46.63
65013;BME280;51715;39.432;-77.518;2022-12-07T04:33:06;100174.50;;;13.21;46.88
65013;BME280;51715;39.432;-77.518;2022-12-07T04:35:44;100174.55;;;12.96;47.28
65013;BME280;51715;39.432;-77.518;2022-12-07T04:38:23;100166.08;;;12.98;46.98
65013;BME280;51715;39.432;-77.518;2022-12-07T04:41:04;100159.69;;;13.13;47.06
65013;BME280;51715;39.432;-77.518;2022-12-07T04:43:42;100154.09;;;13.04;47.42
65013;BME280;51715;39.432;-77.518;2022-12-07T04:46:20;100159.44;;;12.98;47.41
65013;BME280;51715;39.432;-77.518;2022-12-07T04:48:59;100157.90;;;13.20;47.10
65013;BME280;51715;39.432;-77.518;2022-12-07T04:51:38;100164.39;;;12.84;47.65
65013;BME280;51715;39.432;-77.518;2022-12-07T04:54:16;100159.41;;;13.10;47.03
65013;BME280;51715;39.432;-77.518;2022-12-07T04:56:55;100159.66;;;13.04;47.23
65013;BME280;51715;39.432;-77.518;2022-12-07T04:59:33;100160.58;;;12.92;47.58
65013;BME280;51715;39.432;-77.518;2022-12-07T05:03:56;100171.69;;;13.53;45.91
65013;BME280;51715;39.432;-77.518;2022-12-07T05:06:25;100175.82;;;13.57;45.75
65013;BME280;51715;39.432;-77.518;2022-12-07T05:08:54;100176.05;;;13.66;45.59
65013;BME280;51715;39.432;-77.518;2022-12-07T05:11:22;100170.80;;;13.32;45.30
65013;BME280;51715;39.432;-77.518;2022-12-07T05:13:50;100170.22;;;13.84;45.87
65013;BME280;51715;39.432;-77.518;2022-12-07T05:16:18;100159.93;;;13.65;46.22
65013;BME280;51715;39.432;-77.518;2022-12-07T05:18:47;100156.21;;;13.50;46.56
65013;BME280;51715;39.432;-77.518;2022-12-07T05:21:15;100147.40;;;13.55;46.66
65013;BME280;51715;39.432;-77.518;2022-12-07T05:23:43;100148.03;;;13.22;46.93
65013;BME280;51715;39.432;-77.518;2022-12-07T05:26:11;100150.71;;;13.41;46.90
65013;BME280;51715;39.432;-77.518;2022-12-07T05:28:40;100152.59;;;13.04;47.45
65013;BME280;51715;39.432;-77.518;2022-12-07T05:31:08;100152.45;;;13.02;47.50
65013;BME280;51715;39.432;-77.518;2022-12-07T05:33:36;100153.38;;;13.38;47.22
65013;BME280;51715;39.432;-77.518;2022-12-07T05:36:05;100157.09;;;13.07;47.32
65013;BME280;51715;39.432;-77.518;2022-12-07T05:38:34;100159.09;;;13.32;46.99
65013;BME280;51715;39.432;-77.518;2022-12-07T05:41:03;100162.11;;;13.23;47.03
65013;BME280;51715;39.432;-77.518;2022-12-07T05:43:33;100154.34;;;13.36;46.92
65013;BME280;51715;39.432;-77.518;2022-12-07T05:46:01;100156.62;;;13.32;46.78
65013;BME280;51715;39.432;-77.518;2022-12-07T05:48:30;100153.05;;;13.43;46.80
65013;BME280;51715;39.432;-77.518;2022-12-07T05:50:58;100167.74;;;13.41;46.56
65013;BME280;51715;39.432;-77.518;2022-12-07T05:53:26;100177.56;;;13.22;46.58
65013;BME280;51715;39.432;-77.518;2022-12-07T05:55:55;100182.09;;;13.31;46.63
65013;BME280;51715;39.432;-77.518;2022-12-07T05:58:24;100185.67;;;13.60;46.80
65013;BME280;51715;39.432;-77.518;2022-12-07T06:00:54;100185.34;;;13.69;46.58
65013;BME280;51715;39.432;-77.518;2022-12-07T06:03:23;100183.29;;;13.67;46.46
65013;BME280;51715;39.432;-77.518;2022-12-07T06:05:56;100180.60;;;13.63;46.47
65013;BME280;51715;39.432;-77.518;2022-12-07T06:08:25;100179.73;;;13.65;46.48
65013;BME280;51715;39.432;-77.518;2022-12-07T06:10:54;100185.50;;;13.60;46.28
65013;BME280;51715;39.432;-77.518;2022-12-07T06:13:21;100180.77;;;13.47;46.14
65013;BME280;51715;39.432;-77.518;2022-12-07T06:15:50;100172.98;;;13.68;46.46
65013;BME280;51715;39.432;-77.518;2022-12-07T06:18:19;100174.00;;;13.52;46.53
65013;BME280;51715;39.432;-77.518;2022-12-07T06:20:47;100176.47;;;13.50;46.53
65013;BME280;51715;39.432;-77.518;2022-12-07T06:23:16;100173.63;;;13.52;46.61
65013;BME280;51715;39.432;-77.518;2022-12-07T06:25:46;100180.95;;;13.59;46.61
65013;BME280;51715;39.432;-77.518;2022-12-07T06:28:14;100185.29;;;13.63;46.77
65013;BME280;51715;39.432;-77.518;2022-12-07T06:30:43;100187.60;;;13.70;46.40
65013;BME280;51715;39.432;-77.518;2022-12-07T06:33:11;100193.99;;;13.76;46.27
65013;BME280;51715;39.432;-77.518;2022-12-07T06:35:40;100198.30;;;13.74;46.26
65013;BME280;51715;39.432;-77.518;2022-12-07T06:38:09;100186.12;;;13.55;46.22
65013;BME280;51715;39.432;-77.518;2022-12-07T06:40:38;100174.98;;;13.94;46.15
65013;BME280;51715;39.432;-77.518;2022-12-07T06:43:05;100179.35;;;13.79;45.99
65013;BME280;51715;39.432;-77.518;2022-12-07T06:45:34;100181.85;;;13.58;45.98
65013;BME280;51715;39.432;-77.518;2022-12-07T06:48:02;100180.14;;;13.57;46.04
65013;BME280;51715;39.432;-77.518;2022-12-07T06:50:31;100181.07;;;13.67;46.07
65013;BME280;51715;39.432;-77.518;2022-12-07T06:52:59;100178.86;;;13.68;45.99
65013;BME280;51715;39.432;-77.518;2022-12-07T06:55:28;100172.02;;;13.84;45.84
65013;BME280;51715;39.432;-77.518;2022-12-07T06:57:56;100164.34;;;13.77;45.95
65013;BME280;51715;39.432;-77.518;2022-12-07T07:00:25;100153.67;;;13.63;46.11
65013;BME280;51715;39.432;-77.518;2022-12-07T07:02:53;100152.61;;;13.57;46.24
65013;BME280;51715;39.432;-77.518;2022-12-07T07:05:21;100156.44;;;13.71;46.08
65013;BME280;51715;39.432;-77.518;2022-12-07T07:07:49;100162.13;;;13.44;46.28
65013;BME280;51715;39.432;-77.518;2022-12-07T07:10:18;100155.77;;;13.50;46.24
65013;BME280;51715;39.432;-77.518;2022-12-07T07:12:46;100150.73;;;13.60;46.22
65013;BME280;51715;39.432;-77.518;2022-12-07T07:15:15;100148.31;;;13.67;46.24
65013;BME280;51715;39.432;-77.518;2022-12-07T07:17:43;100153.68;;;13.74;46.28
65013;BME280;51715;39.432;-77.518;2022-12-07T07:20:12;100160.66;;;13.72;46.00
65013;BME280;51715;39.432;-77.518;2022-12-07T07:22:40;100162.32;;;14.01;45.95
65013;BME280;51715;39.432;-77.518;2022-12-07T07:25:08;100163.16;;;13.81;45.91
65013;BME280;51715;39.432;-77.518;2022-12-07T07:27:36;100169.29;;;14.04;45.94
65013;BME280;51715;39.432;-77.518;2022-12-07T07:30:06;100170.59;;;13.99;46.09
65013;BME280;51715;39.432;-77.518;2022-12-07T07:32:34;100170.99;;;13.90;46.25
65013;BME280;51715;39.432;-77.518;2022-12-07T07:35:03;100170.35;;;13.43;46.40
65013;BME280;51715;39.432;-77.518;2022-12-07T07:37:31;100176.47;;;13.78;46.64
65013;BME280;51715;39.432;-77.518;2022-12-07T07:39:59;100175.44;;;13.63;46.72
65013;BME280;51715;39.432;-77.518;2022-12-07T07:42:28;100174.01;;;13.63;46.72
65013;BME280;51715;39.432;-77.518;2022-12-07T07:44:56;100171.39;;;13.03;47.17
65013;BME280;51715;39.432;-77.518;2022-12-07T07:47:24;100163.25;;;13.23;47.12
65013;BME280;51715;39.432;-77.518;2022-12-07T07:49:53;100163.62;;;13.39;46.95
65013;BME280;51715;39.432;-77.518;2022-12-07T07:52:21;100163.98;;;13.46;46.98
65013;BME280;51715;39.432;-77.518;2022-12-07T07:54:49;100150.86;;;13.50;46.82
65013;BME280;51715;39.432;-77.518;2022-12-07T07:57:19;100140.74;;;13.33;47.11
65013;BME280;51715;39.432;-77.518;2022-12-07T07:59:47;100141.67;;;13.35;47.03
65013;BME280;51715;39.432;-77.518;2022-12-07T08:02:16;100135.56;;;13.43;47.04
65013;BME280;51715;39.432;-77.518;2022-12-07T08:04:46;100136.63;;;13.51;46.85
65013;BME280;51715;39.432;-77.518;2022-12-07T08:07:15;100149.19;;;13.16;46.98
65013;BME280;51715;39.432;-77.518;2022-12-07T08:09:42;100160.12;;;13.48;46.87
65013;BME280;51715;39.432;-77.518;2022-12-07T08:12:11;100170.22;;;13.21;47.02
65013;BME280;51715;39.432;-77.518;2022-12-07T08:14:39;100172.07;;;13.43;47.10
65013;BME280;51715;39.432;-77.518;2022-12-07T08:17:08;100176.54;;;13.47;47.17
65013;BME280;51715;39.432;-77.518;2022-12-07T08:19:36;100163.89;;;13.54;47.12
65013;BME280;51715;39.432;-77.518;2022-12-07T08:22:04;100151.64;;;13.52;47.05
65013;BME280;51715;39.432;-77.518;2022-12-07T08:24:35;100157.20;;;13.54;46.99
65013;BME280;51715;39.432;-77.518;2022-12-07T08:27:03;100153.13;;;13.54;46.97
65013;BME280;51715;39.432;-77.518;2022-12-07T08:29:32;100143.07;;;13.56;47.01
65013;BME280;51715;39.432;-77.518;2022-12-07T08:32:00;100151.66;;;13.30;47.03
65013;BME280;51715;39.432;-77.518;2022-12-07T08:34:28;100151.67;;;13.61;46.92
65013;BME280;51715;39.432;-77.518;2022-12-07T08:36:56;100141.15;;;13.24;46.76
65013;BME280;51715;39.432;-77.518;2022-12-07T08:39:24;100144.46;;;13.33;46.86
65013;BME280;51715;39.432;-77.518;2022-12-07T08:41:53;100147.05;;;13.45;46.83
65013;BME280;51715;39.432;-77.518;2022-12-07T08:44:21;100145.78;;;13.20;46.97
65013;BME280;51715;39.432;-77.518;2022-12-07T08:46:51;100152.61;;;13.42;46.93
65013;BME280;51715;39.432;-77.518;2022-12-07T08:49:24;100145.01;;;13.56;46.81
65013;BME280;51715;39.432;-77.518;2022-12-07T08:51:55;100149.35;;;13.67;46.79
65013;BME280;51715;39.432;-77.518;2022-12-07T08:54:23;100154.09;;;13.74;46.64
65013;BME280;51715;39.432;-77.518;2022-12-07T08:56:52;100155.23;;;13.75;46.54
65013;BME280;51715;39.432;-77.518;2022-12-07T08:59:21;100148.03;;;13.86;46.46
65013;BME280;51715;39.432;-77.518;2022-12-07T09:01:50;100146.55;;;13.89;46.38
65013;BME280;51715;39.432;-77.518;2022-12-07T09:04:18;100141.62;;;13.67;46.30
65013;BME280;51715;39.432;-77.518;2022-12-07T09:06:46;100129.73;;;13.70;46.26
65013;BME280;51715;39.432;-77.518;2022-12-07T09:09:15;100113.77;;;14.01;46.22
65013;BME280;51715;39.432;-77.518;2022-12-07T09:11:43;100113.75;;;13.77;46.05
65013;BME280;51715;39.432;-77.518;2022-12-07T09:14:12;100119.45;;;13.80;45.94
65013;BME280;51715;39.432;-77.518;2022-12-07T09:16:41;100120.99;;;13.49;45.99
65013;BME280;51715;39.432;-77.518;2022-12-07T09:19:10;100106.08;;;13.78;45.97
65013;BME280;51715;39.432;-77.518;2022-12-07T09:21:38;100107.12;;;14.01;45.81
65013;BME280;51715;39.432;-77.518;2022-12-07T09:24:07;100117.12;;;14.00;45.81
65013;BME280;51715;39.432;-77.518;2022-12-07T09:26:36;100129.19;;;13.61;45.77
65013;BME280;51715;39.432;-77.518;2022-12-07T09:29:04;100140.22;;;13.67;45.77
65013;BME280;51715;39.432;-77.518;2022-12-07T09:31:33;100141.46;;;13.89;45.76
65013;BME280;51715;39.432;-77.518;2022-12-07T09:34:03;100126.66;;;13.87;45.65
65013;BME280;51715;39.432;-77.518;2022-12-07T09:36:32;100108.74;;;13.61;45.52
65013;BME280;51715;39.432;-77.518;2022-12-07T09:39:01;100092.99;;;13.79;45.11
65013;BME280;51715;39.432;-77.518;2022-12-07T09:41:31;100099.72;;;13.99;45.28
65013;BME280;51715;39.432;-77.518;2022-12-07T09:44:04;100097.94;;;13.68;45.64
65013;BME280;51715;39.432;-77.518;2022-12-07T09:46:36;100096.58;;;13.73;45.60
65013;BME280;51715;39.432;-77.518;2022-12-07T09:49:11;100105.15;;;13.54;45.65
65013;BME280;51715;39.432;-77.518;2022-12-07T09:51:40;100106.16;;;14.05;45.59
65013;BME280;51715;39.432;-77.518;2022-12-07T09:54:11;100100.15;;;14.07;45.88
65013;BME280;51715;39.432;-77.518;2022-12-07T09:56:41;100101.21;;;14.01;45.73
65013;BME280;51715;39.432;-77.518;2022-12-07T09:59:16;100110.45;;;13.58;46.06
65013;BME280;51715;39.432;-77.518;2022-12-07T10:01:47;100116.05;;;13.70;45.85
65013;BME280;51715;39.432;-77.518;2022-12-07T10:04:18;100122.38;;;13.72;46.04
65013;BME280;51715;39.432;-77.518;2022-12-07T10:06:46;100127.25;;;13.75;45.95
65013;BME280;51715;39.432;-77.518;2022-12-07T10:09:17;100132.41;;;13.76;46.21
65013;BME280;51715;39.432;-77.518;2022-12-07T10:12:04;100128.16;;;13.77;45.86
65013;BME280;51715;39.432;-77.518;2022-12-07T10:14:35;100118.93;;;13.66;45.50
65013;BME280;51715;39.432;-77.518;2022-12-07T10:17:31;100114.11;;;13.17;46.43
65013;BME280;51715;39.432;-77.518;2022-12-07T10:20:20;100103.81;;;13.52;46.22
65013;BME280;51715;39.432;-77.518;2022-12-07T10:22:59;100112.35;;;13.47;46.01
65013;BME280;51715;39.432;-77.518;2022-12-07T10:25:30;100103.07;;;13.31;46.04
65013;BME280;51715;39.432;-77.518;2022-12-07T10:28:00;100102.04;;;13.20;46.28
65013;BME280;51715;39.432;-77.518;2022-12-07T10:30:30;100105.96;;;13.40;46.17
65013;BME280;51715;39.432;-77.518;2022-12-07T10:33:00;100105.56;;;13.55;46.09
65013;BME280;51715;39.432;-77.518;2022-12-07T10:35:29;100115.34;;;13.67;45.72
65013;BME280;51715;39.432;-77.518;2022-12-07T10:37:59;100132.97;;;13.53;46.05
65013;BME280;51715;39.432;-77.518;2022-12-07T10:40:31;100140.19;;;13.44;45.90
65013;BME280;51715;39.432;-77.518;2022-12-07T10:43:04;100135.21;;;13.46;45.74
65013;BME280;51715;39.432;-77.518;2022-12-07T10:45:36;100158.30;;;13.25;45.96
65013;BME280;51715;39.432;-77.518;2022-12-07T10:48:13;100161.70;;;13.40;46.09
65013;BME280;51715;39.432;-77.518;2022-12-07T10:50:54;100159.76;;;13.49;45.83
65013;BME280;51715;39.432;-77.518;2022-12-07T10:53:43;100168.54;;;13.39;45.56
65013;BME280;51715;39.432;-77.518;2022-12-07T10:56:43;100171.45;;;13.44;45.55
65013;BME280;51715;39.432;-77.518;2022-12-07T10:59:58;100165.12;;;13.81;45.53
65013;BME280;51715;39.432;-77.518;2022-12-07T11:02:57;100182.27;;;13.60;45.09
65013;BME280;51715;39.432;-77.518;2022-12-07T11:05:36;100182.38;;;13.49;45.50
65013;BME280;51715;39.432;-77.518;2022-12-07T11:08:16;100189.92;;;13.64;45.56
65013;BME280;51715;39.432;-77.518;2022-12-07T11:10:52;100192.64;;;13.51;45.59
65013;BME280;51715;39.432;-77.518;2022-12-07T11:13:28;100189.72;;;13.70;45.28
65013;BME280;51715;39.432;-77.518;2022-12-07T11:16:08;100172.25;;;13.61;44.98
65013;BME280;51715;39.432;-77.518;2022-12-07T11:18:49;100162.54;;;13.76;44.61
65013;BME280;51715;39.432;-77.518;2022-12-07T11:21:26;100188.95;;;13.74;44.95
65013;BME280;51715;39.432;-77.518;2022-12-07T11:24:05;100182.23;;;13.42;45.07
65013;BME280;51715;39.432;-77.518;2022-12-07T11:26:46;100179.19;;;14.01;45.04
65013;BME280;51715;39.432;-77.518;2022-12-07T11:29:31;100169.22;;;13.73;44.94
65013;BME280;51715;39.432;-77.518;2022-12-07T11:32:08;100157.84;;;13.68;45.45
65013;BME280;51715;39.432;-77.518;2022-12-07T11:34:45;100151.01;;;13.62;45.29
65013;BME280;51715;39.432;-77.518;2022-12-07T11:37:19;100139.06;;;13.58;45.50
65013;BME280;51715;39.432;-77.518;2022-12-07T11:39:52;100145.59;;;13.61;45.23
65013;BME280;51715;39.432;-77.518;2022-12-07T11:42:26;100150.61;;;13.58;45.58
65013;BME280;51715;39.432;-77.518;2022-12-07T11:44:59;100160.15;;;13.73;45.39
65013;BME280;51715;39.432;-77.518;2022-12-07T11:47:35;100167.88;;;13.61;46.25
65013;BME280;51715;39.432;-77.518;2022-12-07T11:50:21;100146.17;;;13.28;46.15
65013;BME280;51715;39.432;-77.518;2022-12-07T11:52:54;100169.93;;;13.35;46.05
65013;BME280;51715;39.432;-77.518;2022-12-07T11:55:29;100176.36;;;13.39;46.15
65013;BME280;51715;39.432;-77.518;2022-12-07T11:58:04;100163.67;;;13.32;46.22
65013;BME280;51715;39.432;-77.518;2022-12-07T12:00:34;100158.73;;;13.30;46.21
65013;BME280;51715;39.432;-77.518;2022-12-07T12:03:11;100169.56;;;13.25;46.27
65013;BME280;51715;39.432;-77.518;2022-12-07T12:05:41;100192.20;;;13.25;46.47
65013;BME280;51715;39.432;-77.518;2022-12-07T12:08:15;100199.98;;;13.06;46.26
65013;BME280;51715;39.432;-77.518;2022-12-07T12:10:54;100204.83;;;13.17;46.12
65013;BME280;51715;39.432;-77.518;2022-12-07T12:13:37;100198.01;;;12.76;46.86
65013;BME280;51715;39.432;-77.518;2022-12-07T12:16:25;100175.46;;;12.80;47.01
65013;BME280;51715;39.432;-77.518;2022-12-07T12:19:20;100182.92;;;13.04;47.05
65013;BME280;51715;39.432;-77.518;2022-12-07T12:21:55;100178.58;;;12.73;47.11
65013;BME280;51715;39.432;-77.518;2022-12-07T12:24:28;100176.66;;;12.90;47.00
65013;BME280;51715;39.432;-77.518;2022-12-07T12:27:02;100174.52;;;12.88;47.02
65013;BME280;51715;39.432;-77.518;2022-12-07T12:29:34;100170.21;;;12.46;47.67
65013;BME280;51715;39.432;-77.518;2022-12-07T12:32:11;100175.92;;;12.61;47.57
65013;BME280;51715;39.432;-77.518;2022-12-07T12:34:59;100169.66;;;12.33;48.08
65013;BME280;51715;39.432;-77.518;2022-12-07T12:37:44;100160.05;;;12.98;47.98
65013;BME280;51715;39.432;-77.518;2022-12-07T12:41:04;100155.10;;;12.49;48.24
65013;BME280;51715;39.432;-77.518;2022-12-07T12:44:40;100150.89;;;12.53;48.29
65013;BME280;51715;39.432;-77.518;2022-12-07T12:47:57;100139.96;;;12.50;48.30
65013;BME280;51715;39.432;-77.518;2022-12-07T12:50:28;100130.63;;;12.62;48.05
65013;BME280;51715;39.432;-77.518;2022-12-07T12:53:02;100121.56;;;13.00;47.99
65013;BME280;51715;39.432;-77.518;2022-12-07T12:56:39;100110.18;;;13.12;48.55
65013;BME280;51715;39.432;-77.518;2022-12-07T12:59:24;100123.88;;;12.80;48.41
65013;BME280;51715;39.432;-77.518;2022-12-07T13:01:53;100143.91;;;12.76;48.55
65013;BME280;51715;39.432;-77.518;2022-12-07T13:04:52;100155.17;;;13.08;48.30
65013;BME280;51715;39.432;-77.518;2022-12-07T13:07:57;100157.00;;;12.53;49.40
65013;BME280;51715;39.432;-77.518;2022-12-07T13:10:39;100148.59;;;12.72;49.60
65013;BME280;51715;39.432;-77.518;2022-12-07T13:13:42;100140.61;;;13.02;49.13
65013;BME280;51715;39.432;-77.518;2022-12-07T13:16:43;100123.16;;;12.83;49.22
65013;BME280;51715;39.432;-77.518;2022-12-07T13:19:54;100131.17;;;13.12;49.16